Aérodrome :
LOGIN :

S'inscrire | Disclaimer

   EN    FR    IT 

 










Légende :    VFR   VFR Marginal   IFR   IFR Intensif   IFR Très Intensif
Visi : 
Plafond : 
>= 8 km
>= 3000ft
5 à 8 km
1000 à 3000 ft
1500m à 5 km
500 à 1000 ft
800 à 1500m
200 à 500 ft
< 800m
< 200 ft
Symboles :   Orages  Brouillard  Fortes neiges  Fortes précipitations  Vent > 20 kt
SIGMETs :   Divers  Orages  Givrage  Turbulence  Onde Orograph.  Cendres Volcan.







- Altitude de l'aérodrome : 72 ft
- Code IATA : UDE


EHVK - Volkel Airbase

DERNIER METAR :
  • 170855Z AUTO 13004KT 9999 OVC240 06/02 Q1021 BLU

METARs EXPIRÉS :
  • 170825Z AUTO 14004KT 9999 OVC240 04/02 Q1021 BLU
  • 170755Z AUTO 14003KT 9999 OVC240 02/00 Q1021 BLU
  • 170725Z AUTO 14003KT 9999 OVC230 01/M01 Q1022 BLU
  • 170655Z AUTO 15003KT 9999 OVC240 00/M00 Q1021 BLU
  • 170625Z AUTO 14001KT 9000 BR OVC220 00/M00 Q1021 BLU

TAF TAF EHVK
Valide du 17 à 06h jusqu'au 17 à 18h UTC


170503Z 1706/1718 VRB02KT 6000 NSC
PROB40 1706/1708 3500 BR MIFG
BECMG 1706/1709 18007KT
Pas de NOTAMs connus pour ce terrain.



MET'MAP, la Météo Aéronautique d'un coup d'oeil ! - Copyright ORBIFLY Décembre 2007 - Disclaimer

ORBIFLY MET'MAP TEAM :

Programmation & Développement : Alexandra Zaïnal
Conception & Développement : Baudouin d'Aumeries
Co-Programmation & Développement : Marc-Olivier Méhu
Soutien technique & logistique : Manuel Goepfert

Contact : metmap@orbifly.com




SOURCES & CREDITS :

   NOAA